createdAt,value
2023-03-26T00:00:01.574Z,99699.20
2023-03-26T00:02:31.378Z,99695.00
2023-03-26T00:05:05.608Z,99693.40
2023-03-26T00:07:34.497Z,99698.20
2023-03-26T00:10:04.508Z,99697.60
2023-03-26T00:12:33.903Z,99695.00
2023-03-26T00:15:08.146Z,99699.40
2023-03-26T00:17:37.466Z,99702.60
2023-03-26T00:20:08.666Z,99709.40
2023-03-26T00:22:37.211Z,99706.60
2023-03-26T00:25:07.594Z,99711.20
2023-03-26T00:27:36.571Z,99707.20
2023-03-26T00:30:07.568Z,99701.20
2023-03-26T00:32:36.519Z,99699.60
2023-03-26T00:35:06.575Z,99699.80
2023-03-26T00:37:35.213Z,99705.40
2023-03-26T00:40:07.154Z,99703.80
2023-03-26T00:42:36.924Z,99706.00
2023-03-26T00:45:10.150Z,99707.00
2023-03-26T00:47:40.481Z,99711.80
2023-03-26T00:50:15.696Z,99706.80
2023-03-26T00:52:46.938Z,99709.80
2023-03-26T00:55:16.520Z,99709.60
2023-03-26T00:57:46.721Z,99710.40
2023-03-26T01:00:19.188Z,99712.20
2023-03-26T01:02:48.113Z,99713.60
2023-03-26T01:05:35.314Z,99714.60
2023-03-26T01:08:31.172Z,99711.20
2023-03-26T01:11:07.705Z,99712.60
2023-03-26T01:13:39.707Z,99716.20
2023-03-26T01:16:20.574Z,99718.60
2023-03-26T01:18:50.333Z,99722.40
2023-03-26T01:21:30.250Z,99714.60
2023-03-26T01:24:08.113Z,99722.20
2023-03-26T01:27:04.750Z,99720.60
2023-03-26T01:29:56.603Z,99721.20
2023-03-26T01:33:14.580Z,99720.00
2023-03-26T01:35:46.420Z,99719.40
2023-03-26T01:38:36.265Z,99709.20
2023-03-26T01:41:36.613Z,99711.20
2023-03-26T01:44:40.303Z,99712.80
2023-03-26T01:47:10.726Z,99711.60
2023-03-26T01:49:39.622Z,99710.80
2023-03-26T01:52:19.948Z,99709.80
2023-03-26T01:54:49.492Z,99709.40
2023-03-26T01:57:18.076Z,99703.40
2023-03-26T02:00:07.300Z,99708.20
2023-03-26T02:02:59.687Z,99708.20
2023-03-26T02:05:47.313Z,99707.60
2023-03-26T02:08:41.638Z,99705.20
2023-03-26T02:11:16.493Z,99710.60
2023-03-26T02:13:47.286Z,99709.60
2023-03-26T02:16:18.090Z,99712.80
2023-03-26T02:18:51.628Z,99712.00
2023-03-26T02:21:26.289Z,99709.20
2023-03-26T02:24:03.333Z,99715.00
2023-03-26T02:26:37.918Z,99710.80
2023-03-26T02:29:19.594Z,99705.20
2023-03-26T02:31:49.991Z,99711.60
2023-03-26T02:34:19.077Z,99714.00
2023-03-26T02:36:52.107Z,99715.20
2023-03-26T02:39:21.209Z,99714.20
2023-03-26T02:42:03.498Z,99712.60
2023-03-26T02:44:34.073Z,99712.80
2023-03-26T02:47:03.176Z,99720.60
2023-03-26T02:49:50.916Z,99727.20
2023-03-26T02:52:43.434Z,99725.80
2023-03-26T02:55:12.240Z,99722.20
2023-03-26T02:57:43.181Z,99722.20
2023-03-26T03:00:15.458Z,99719.40
2023-03-26T03:02:48.548Z,99723.80
2023-03-26T03:05:34.011Z,99729.60
2023-03-26T03:08:24.648Z,99728.00
2023-03-26T03:11:11.128Z,99733.60
2023-03-26T03:13:44.839Z,99730.00
2023-03-26T03:16:14.480Z,99749.60
2023-03-26T03:18:43.332Z,99744.00
2023-03-26T03:21:12.428Z,99736.40
2023-03-26T03:23:41.332Z,99725.00
2023-03-26T03:26:21.932Z,99734.40
2023-03-26T03:28:56.788Z,99730.60
2023-03-26T03:31:27.764Z,99730.80
2023-03-26T03:34:01.057Z,99732.40
2023-03-26T03:36:33.426Z,99732.20
2023-03-26T03:39:09.388Z,99735.80
2023-03-26T03:41:38.700Z,99736.00
2023-03-26T03:44:08.913Z,99736.80
2023-03-26T03:46:38.689Z,99741.80
2023-03-26T03:49:07.614Z,99751.20
2023-03-26T03:51:38.351Z,99754.40
2023-03-26T03:54:15.643Z,99755.00
2023-03-26T03:56:49.219Z,99758.40
2023-03-26T03:59:38.205Z,99761.80
2023-03-26T04:02:26.921Z,99761.80
2023-03-26T04:04:59.327Z,99767.20
2023-03-26T04:07:33.352Z,99771.20
2023-03-26T04:10:10.138Z,99778.60
2023-03-26T04:12:58.975Z,99772.40
2023-03-26T04:15:42.571Z,99781.40
2023-03-26T04:18:12.072Z,99777.00
2023-03-26T04:20:47.695Z,99780.80
2023-03-26T04:23:23.478Z,99779.80
2023-03-26T04:26:04.289Z,99776.40
2023-03-26T04:28:56.873Z,99782.20
2023-03-26T04:31:30.819Z,99783.40
2023-03-26T04:34:13.981Z,99782.20
2023-03-26T04:36:54.983Z,99780.00
2023-03-26T04:39:29.679Z,99780.00
2023-03-26T04:42:21.713Z,99784.60
2023-03-26T04:45:03.406Z,99778.00
2023-03-26T04:47:33.082Z,99780.40
2023-03-26T04:50:01.818Z,99777.40
2023-03-26T04:52:31.107Z,99773.20
2023-03-26T04:56:00.205Z,99775.20
2023-03-26T04:58:50.839Z,99773.40
2023-03-26T05:01:21.900Z,99773.80
2023-03-26T05:03:50.791Z,99770.00
2023-03-26T05:06:19.983Z,99773.60
2023-03-26T05:08:48.941Z,99776.60
2023-03-26T05:11:31.763Z,99775.20
2023-03-26T05:14:00.576Z,99776.00
2023-03-26T05:16:31.997Z,99777.40
2023-03-26T05:19:07.565Z,99768.00
2023-03-26T05:21:37.480Z,99778.00
2023-03-26T05:24:07.866Z,99777.00
2023-03-26T05:26:37.192Z,99775.20
2023-03-26T05:29:06.077Z,99774.20
2023-03-26T05:31:38.349Z,99781.20
2023-03-26T05:34:07.043Z,99779.80
2023-03-26T05:36:37.010Z,99776.20
2023-03-26T05:39:11.242Z,99779.40
2023-03-26T05:42:00.156Z,99785.40
2023-03-26T05:44:44.388Z,99785.60
2023-03-26T05:47:19.733Z,99776.00
2023-03-26T05:49:48.722Z,99780.20
2023-03-26T05:52:19.505Z,99781.80
2023-03-26T05:55:12.109Z,99775.40
2023-03-26T05:57:59.758Z,99779.80
2023-03-26T06:00:48.930Z,99777.60
2023-03-26T06:03:23.510Z,99780.00
2023-03-26T06:06:17.130Z,99775.20
2023-03-26T06:09:02.041Z,99781.00
2023-03-26T06:11:33.154Z,99777.60
2023-03-26T06:14:03.563Z,99780.40
2023-03-26T06:16:34.241Z,99788.40
2023-03-26T06:19:28.972Z,99787.40
2023-03-26T06:22:02.165Z,99792.20
2023-03-26T06:24:35.251Z,99792.20
2023-03-26T06:27:20.936Z,99795.20
2023-03-26T06:30:16.275Z,99793.40
2023-03-26T06:33:07.797Z,99799.40
2023-03-26T06:35:48.390Z,99793.00
2023-03-26T06:38:17.748Z,99794.00
2023-03-26T06:40:46.963Z,99786.80
2023-03-26T06:43:27.819Z,99787.60
2023-03-26T06:45:56.562Z,99790.60
2023-03-26T06:48:42.438Z,99793.00
2023-03-26T06:51:21.942Z,99793.60
2023-03-26T06:54:09.460Z,99788.40
2023-03-26T06:56:47.266Z,99793.00
2023-03-26T06:59:42.164Z,99789.60
2023-03-26T07:02:29.637Z,99797.80
2023-03-26T07:05:17.729Z,99798.60
2023-03-26T07:08:05.367Z,99798.40
2023-03-26T07:10:53.350Z,99800.00
2023-03-26T07:13:42.062Z,99805.00
2023-03-26T07:16:29.408Z,99804.20
2023-03-26T07:19:21.629Z,99803.80
2023-03-26T07:21:51.744Z,99795.00
2023-03-26T07:24:56.597Z,99792.40
2023-03-26T07:28:28.150Z,99797.60
2023-03-26T07:31:29.514Z,99797.80
2023-03-26T07:34:45.592Z,99798.20
2023-03-26T07:37:43.471Z,99792.20
2023-03-26T07:40:35.523Z,99794.60
2023-03-26T07:43:45.674Z,99792.80
2023-03-26T07:46:37.396Z,99795.20
2023-03-26T07:49:22.073Z,99795.20
2023-03-26T07:52:11.524Z,99795.00
2023-03-26T07:54:58.414Z,99793.60
2023-03-26T07:58:14.027Z,99795.20
2023-03-26T08:01:37.490Z,99787.60
2023-03-26T08:04:55.429Z,99785.60
2023-03-26T08:08:07.638Z,99782.60
2023-03-26T08:11:09.915Z,99772.20
2023-03-26T08:13:49.758Z,99768.40
2023-03-26T08:16:32.265Z,99770.20
2023-03-26T08:19:28.503Z,99764.20
2023-03-26T08:22:30.079Z,99770.60
2023-03-26T08:25:28.172Z,99764.00
2023-03-26T08:28:38.107Z,99764.40
2023-03-26T08:31:11.752Z,99764.40
2023-03-26T08:33:42.651Z,99761.80
2023-03-26T08:36:11.842Z,99765.20
2023-03-26T08:38:40.537Z,99778.40
2023-03-26T08:41:37.884Z,99788.00
2023-03-26T08:44:37.481Z,99790.20
2023-03-26T08:47:24.222Z,99798.60
2023-03-26T08:50:16.374Z,99801.00
2023-03-26T08:53:09.292Z,99800.00
2023-03-26T08:56:02.037Z,99802.40
2023-03-26T08:58:53.205Z,99804.80
2023-03-26T09:01:54.780Z,99810.60
2023-03-26T09:05:11.727Z,99807.20
2023-03-26T09:08:23.849Z,99804.20
2023-03-26T09:11:20.814Z,99806.20
2023-03-26T09:14:31.355Z,99805.60
2023-03-26T09:17:35.442Z,99802.00
2023-03-26T09:20:41.739Z,99794.60
2023-03-26T09:23:43.607Z,99790.20
2023-03-26T09:26:25.813Z,99794.20
2023-03-26T09:29:12.825Z,99791.80
2023-03-26T09:32:22.907Z,99788.80
2023-03-26T09:35:44.155Z,99786.80
2023-03-26T09:39:00.738Z,99781.20
2023-03-26T09:41:52.973Z,99787.40
2023-03-26T09:44:35.464Z,99778.40
2023-03-26T09:47:35.141Z,99779.20
2023-03-26T09:50:23.326Z,99773.20
2023-03-26T09:53:39.727Z,99775.00
2023-03-26T09:56:42.658Z,99775.20
2023-03-26T09:59:34.372Z,99773.00
2023-03-26T10:02:20.581Z,99767.60
2023-03-26T10:05:27.647Z,99768.60
2023-03-26T10:07:57.482Z,99766.40
2023-03-26T10:10:43.336Z,99769.40
2023-03-26T10:13:24.822Z,99766.40
2023-03-26T10:16:18.129Z,99758.40
2023-03-26T10:18:59.161Z,99758.40
2023-03-26T10:21:30.987Z,99757.40
2023-03-26T10:24:24.896Z,99751.60
2023-03-26T10:27:41.922Z,99754.40
2023-03-26T10:30:41.699Z,99755.20
2023-03-26T10:33:30.900Z,99748.60
2023-03-26T10:36:29.961Z,99758.40
2023-03-26T10:39:37.874Z,99751.40
2023-03-26T10:42:59.023Z,99756.00
2023-03-26T10:45:56.187Z,99764.20
2023-03-26T10:48:43.600Z,99757.80
2023-03-26T10:51:24.171Z,99756.80
2023-03-26T10:54:03.509Z,99762.00
2023-03-26T10:56:36.975Z,99767.20
2023-03-26T10:59:09.281Z,99759.80
2023-03-26T11:01:45.648Z,99758.40
2023-03-26T11:05:03.927Z,99754.80
2023-03-26T11:07:51.037Z,99758.20
2023-03-26T11:10:37.120Z,99748.60
2023-03-26T11:13:21.258Z,99750.40
2023-03-26T11:16:44.015Z,99747.80
2023-03-26T11:19:21.305Z,99746.20
2023-03-26T11:22:42.996Z,99744.60
2023-03-26T11:25:44.188Z,99746.40
2023-03-26T11:28:38.066Z,99745.80
2023-03-26T11:31:23.483Z,99747.60
2023-03-26T11:33:58.301Z,99740.60
2023-03-26T11:36:36.686Z,99735.00
2023-03-26T11:39:15.842Z,99732.80
2023-03-26T11:41:45.229Z,99729.20
2023-03-26T11:44:36.750Z,99735.60
2023-03-26T11:47:10.971Z,99735.40
2023-03-26T11:49:42.781Z,99728.00
2023-03-26T11:52:12.951Z,99729.80
2023-03-26T11:54:43.678Z,99726.60
2023-03-26T11:57:26.505Z,99714.80
2023-03-26T12:00:17.630Z,99711.20
2023-03-26T12:02:51.452Z,99709.40
2023-03-26T12:05:29.598Z,99708.40
2023-03-26T12:08:20.587Z,99699.00
2023-03-26T12:11:07.877Z,99694.60
2023-03-26T12:13:59.479Z,99695.20
2023-03-26T12:16:28.797Z,99696.20
2023-03-26T12:19:08.518Z,99687.00
2023-03-26T12:21:50.521Z,99688.80
2023-03-26T12:24:32.218Z,99688.40
2023-03-26T12:27:31.106Z,99687.60
2023-03-26T12:30:22.699Z,99685.80
2023-03-26T12:32:53.609Z,99673.00
2023-03-26T12:35:31.594Z,99674.40
2023-03-26T12:38:35.672Z,99678.80
2023-03-26T12:44:42.139Z,99677.00
2023-03-26T12:44:53.116Z,99671.40
2023-03-26T12:47:59.338Z,99677.40
2023-03-26T12:51:16.532Z,99676.80
2023-03-26T12:53:48.188Z,99674.00
2023-03-26T12:57:11.682Z,99668.40
2023-03-26T13:00:35.242Z,99672.00
2023-03-26T13:03:52.959Z,99670.00
2023-03-26T13:06:59.413Z,99664.00
2023-03-26T13:10:24.042Z,99664.40
2023-03-26T13:13:19.049Z,99663.00
2023-03-26T13:16:02.296Z,99664.60
2023-03-26T13:19:04.963Z,99665.00
2023-03-26T13:21:57.507Z,99663.00
2023-03-26T13:24:32.235Z,99668.20
2023-03-26T13:27:34.001Z,99676.40
2023-03-26T13:30:42.308Z,99680.60
2023-03-26T13:33:46.134Z,99684.20
2023-03-26T13:37:23.764Z,99687.00
2023-03-26T13:40:25.773Z,99689.00
2023-03-26T13:43:41.190Z,99686.00
2023-03-26T13:46:38.242Z,99685.60
2023-03-26T13:49:41.334Z,99680.00
2023-03-26T13:52:42.580Z,99677.20
2023-03-26T13:55:31.402Z,99675.40
2023-03-26T13:58:09.150Z,99671.60
2023-03-26T14:01:19.010Z,99672.60
2023-03-26T14:04:20.076Z,99672.20
2023-03-26T14:07:10.145Z,99678.60
2023-03-26T14:09:59.000Z,99671.60
2023-03-26T14:12:49.582Z,99677.40
2023-03-26T14:15:43.194Z,99680.20
2023-03-26T14:18:38.281Z,99677.20
2023-03-26T14:21:21.905Z,99676.20
2023-03-26T14:23:59.608Z,99680.00
2023-03-26T14:26:43.742Z,99676.60
2023-03-26T14:29:32.306Z,99679.80
2023-03-26T14:32:51.999Z,99678.80
2023-03-26T14:35:31.744Z,99675.40
2023-03-26T14:38:41.988Z,99679.60
2023-03-26T14:41:34.330Z,99677.20
2023-03-26T14:44:49.111Z,99668.20
2023-03-26T14:47:24.287Z,99666.20
2023-03-26T14:50:38.188Z,99666.20
2023-03-26T14:53:28.646Z,99666.20
2023-03-26T14:56:21.640Z,99670.60
2023-03-26T14:59:25.137Z,99661.80
2023-03-26T15:02:22.815Z,99655.00
2023-03-26T15:04:54.579Z,99651.00
2023-03-26T15:07:47.728Z,99645.40
2023-03-26T15:10:23.017Z,99643.60
2023-03-26T15:13:44.703Z,99639.40
2023-03-26T15:17:08.589Z,99641.80
2023-03-26T15:19:52.328Z,99644.40
2023-03-26T15:22:52.155Z,99641.00
2023-03-26T15:25:35.672Z,99642.00
2023-03-26T15:28:19.529Z,99647.20
2023-03-26T15:31:22.617Z,99646.20
2023-03-26T15:34:20.325Z,99646.20
2023-03-26T15:37:42.925Z,99643.00
2023-03-26T15:40:20.725Z,99642.80
2023-03-26T15:43:07.031Z,99644.80
2023-03-26T15:46:33.677Z,99641.00
2023-03-26T15:49:33.690Z,99637.40
2023-03-26T15:52:19.584Z,99640.20
2023-03-26T15:55:53.598Z,99635.40
2023-03-26T15:59:05.729Z,99636.40
2023-03-26T16:02:16.490Z,99636.60
2023-03-26T16:05:06.168Z,99629.00
2023-03-26T16:08:26.147Z,99626.20
2023-03-26T16:10:57.530Z,99623.20
2023-03-26T16:13:26.293Z,99630.20
2023-03-26T16:15:56.667Z,99629.00
2023-03-26T16:18:34.823Z,99625.40
2023-03-26T16:21:32.743Z,99628.20
2023-03-26T16:24:08.373Z,99626.80
2023-03-26T16:26:55.789Z,99630.20
2023-03-26T16:29:28.809Z,99627.60
2023-03-26T16:32:29.364Z,99632.20
2023-03-26T16:35:05.441Z,99633.20
2023-03-26T16:37:36.955Z,99632.80
2023-03-26T16:40:18.394Z,99626.60
2023-03-26T16:43:10.634Z,99630.20
2023-03-26T16:46:28.768Z,99627.40
2023-03-26T16:49:16.263Z,99624.60
2023-03-26T16:52:32.219Z,99624.40
2023-03-26T16:55:22.598Z,99624.40
2023-03-26T16:58:11.158Z,99626.80
2023-03-26T17:01:31.185Z,99628.40
2023-03-26T17:04:21.857Z,99629.20
2023-03-26T17:07:02.047Z,99635.20
2023-03-26T17:09:52.117Z,99637.60
2023-03-26T17:13:05.118Z,99638.20
2023-03-26T17:15:56.469Z,99643.00
2023-03-26T17:18:38.554Z,99644.80
2023-03-26T17:22:01.500Z,99641.80
2023-03-26T17:24:43.295Z,99645.20
2023-03-26T17:27:56.122Z,99650.60
2023-03-26T17:31:14.313Z,99655.20
2023-03-26T17:33:43.364Z,99656.40
2023-03-26T17:36:12.069Z,99658.20
2023-03-26T17:38:40.771Z,99661.60
2023-03-26T17:41:35.958Z,99662.40
2023-03-26T17:44:38.340Z,99664.20
2023-03-26T17:47:45.699Z,99665.20
2023-03-26T17:50:23.879Z,99668.80
2023-03-26T17:53:13.220Z,99672.00
2023-03-26T17:55:46.806Z,99671.60
2023-03-26T17:58:44.823Z,99673.40
2023-03-26T18:01:48.979Z,99671.40
2023-03-26T18:04:31.508Z,99672.20
2023-03-26T18:07:21.996Z,99675.40
2023-03-26T18:10:19.334Z,99677.00
2023-03-26T18:13:35.761Z,99676.40
2023-03-26T18:16:18.007Z,99682.20
2023-03-26T18:18:57.940Z,99683.40
2023-03-26T18:21:39.583Z,99687.00
2023-03-26T18:24:15.786Z,99689.00
2023-03-26T18:26:51.061Z,99683.80
2023-03-26T18:29:25.608Z,99688.40
2023-03-26T18:32:15.624Z,99694.20
2023-03-26T18:34:57.266Z,99691.40
2023-03-26T18:37:38.834Z,99686.80
2023-03-26T18:40:16.938Z,99683.40
2023-03-26T18:42:56.754Z,99685.20
2023-03-26T18:45:41.471Z,99684.40
2023-03-26T18:48:26.428Z,99686.60
2023-03-26T18:51:05.244Z,99683.60
2023-03-26T18:54:05.079Z,99685.40
2023-03-26T18:56:39.903Z,99680.80
2023-03-26T18:59:32.300Z,99685.60
2023-03-26T19:02:07.747Z,99682.60
2023-03-26T19:04:37.536Z,99679.00
2023-03-26T19:07:11.927Z,99681.80
2023-03-26T19:09:43.472Z,99687.00
2023-03-26T19:12:23.108Z,99686.00
2023-03-26T19:15:24.834Z,99687.00
2023-03-26T19:18:04.051Z,99686.20
2023-03-26T19:21:03.917Z,99686.20
2023-03-26T19:23:38.595Z,99687.40
2023-03-26T19:26:10.523Z,99683.20
2023-03-26T19:29:06.197Z,99686.00
2023-03-26T19:31:39.145Z,99688.00
2023-03-26T19:34:18.013Z,99686.60
2023-03-26T19:37:27.652Z,99684.20
2023-03-26T19:40:30.467Z,99685.60
2023-03-26T19:42:59.457Z,99688.60
2023-03-26T19:45:28.434Z,99692.20
2023-03-26T19:48:07.706Z,99686.20
2023-03-26T19:50:55.533Z,99684.20
2023-03-26T19:53:33.242Z,99689.60
2023-03-26T19:56:20.993Z,99686.20
2023-03-26T19:58:52.823Z,99693.40
2023-03-26T20:01:28.960Z,99689.20
2023-03-26T20:04:04.311Z,99685.40
2023-03-26T20:06:43.940Z,99689.40
2023-03-26T20:09:13.758Z,99687.60
2023-03-26T20:11:42.583Z,99689.80
2023-03-26T20:14:26.426Z,99684.40
2023-03-26T20:16:55.728Z,99692.00
2023-03-26T20:19:25.405Z,99692.80
2023-03-26T20:21:54.917Z,99692.80
2023-03-26T20:24:24.970Z,99696.80
2023-03-26T20:26:53.489Z,99696.60
2023-03-26T20:29:22.204Z,99704.00
2023-03-26T20:31:50.962Z,99710.60
2023-03-26T20:34:23.663Z,99711.80
2023-03-26T20:36:55.615Z,99716.60
2023-03-26T20:39:25.463Z,99715.60
2023-03-26T20:41:56.577Z,99717.20
2023-03-26T20:44:27.685Z,99721.80
2023-03-26T20:46:59.439Z,99724.60
2023-03-26T20:49:34.017Z,99728.80
2023-03-26T20:52:06.475Z,99734.40
2023-03-26T20:54:38.248Z,99734.40
2023-03-26T20:57:12.055Z,99738.40
2023-03-26T20:59:42.592Z,99738.80
2023-03-26T21:02:12.651Z,99737.00
2023-03-26T21:04:41.808Z,99737.40
2023-03-26T21:07:18.122Z,99742.20
2023-03-26T21:09:48.915Z,99745.80
2023-03-26T21:12:31.573Z,99747.80
2023-03-26T21:15:01.755Z,99754.20
2023-03-26T21:17:35.085Z,99754.20
2023-03-26T21:20:13.862Z,99765.00
2023-03-26T21:23:37.171Z,99767.20
2023-03-26T21:26:18.513Z,99764.00
2023-03-26T21:28:49.424Z,99769.40
2023-03-26T21:31:24.466Z,99771.40
2023-03-26T21:33:55.619Z,99770.20
2023-03-26T21:36:25.079Z,99779.60
2023-03-26T21:38:55.163Z,99787.80
2023-03-26T21:41:24.519Z,99789.00
2023-03-26T21:43:53.144Z,99792.60
2023-03-26T21:46:22.717Z,99794.20
2023-03-26T21:48:52.219Z,99800.80
2023-03-26T21:51:21.757Z,99803.00
2023-03-26T21:53:51.153Z,99796.80
2023-03-26T21:56:50.040Z,99803.00
2023-03-26T21:59:39.638Z,99803.60
2023-03-26T22:02:32.259Z,99809.60
2023-03-26T22:05:12.747Z,99806.40
2023-03-26T22:07:58.751Z,99804.80
2023-03-26T22:10:28.476Z,99806.80
2023-03-26T22:12:58.562Z,99807.00
2023-03-26T22:15:30.970Z,99814.20
2023-03-26T22:18:04.275Z,99810.60
2023-03-26T22:20:34.282Z,99816.40
2023-03-26T22:23:03.566Z,99810.60
2023-03-26T22:25:33.276Z,99819.00
2023-03-26T22:28:02.507Z,99807.00
2023-03-26T22:30:32.615Z,99813.00
2023-03-26T22:33:01.606Z,99811.40
2023-03-26T22:35:30.610Z,99811.80
2023-03-26T22:38:00.425Z,99808.60
2023-03-26T22:40:29.701Z,99810.00
2023-03-26T22:42:58.397Z,99813.40
2023-03-26T22:45:28.208Z,99809.40
2023-03-26T22:48:03.202Z,99812.60
2023-03-26T22:50:33.724Z,99813.20
2023-03-26T22:53:02.233Z,99810.80
2023-03-26T22:55:30.883Z,99815.40
2023-03-26T22:57:59.400Z,99814.20
2023-03-26T23:00:28.046Z,99826.80
2023-03-26T23:03:00.797Z,99825.60
2023-03-26T23:05:29.813Z,99829.40
2023-03-26T23:07:58.612Z,99831.60
2023-03-26T23:10:30.253Z,99832.60
2023-03-26T23:12:58.734Z,99836.00
2023-03-26T23:15:27.315Z,99836.20
2023-03-26T23:17:57.743Z,99842.80
2023-03-26T23:20:27.755Z,99844.20
2023-03-26T23:22:56.321Z,99846.00
2023-03-26T23:25:25.008Z,99854.00
2023-03-26T23:27:54.000Z,99859.80
2023-03-26T23:30:23.023Z,99862.80
2023-03-26T23:32:53.268Z,99862.80
2023-03-26T23:35:21.808Z,99867.80
2023-03-26T23:37:51.213Z,99868.40
2023-03-26T23:40:19.795Z,99872.00
2023-03-26T23:42:49.811Z,99879.60
2023-03-26T23:45:18.398Z,99878.20
2023-03-26T23:47:47.298Z,99882.20
2023-03-26T23:50:16.790Z,99888.60
2023-03-26T23:52:46.091Z,99891.40
2023-03-26T23:55:14.616Z,99892.40
2023-03-26T23:57:43.567Z,99896.60
